Ana Sayfa
METAR-TAF:

METAR-TAF

Havaalanları :

Grangeville, Idaho, Amerika Birleşik Devletleri

Enlem: 45-56-33N, Boylam: 116-07-24W, yükseklik: 1010 m

Güncel hava durumu gözlemi

Rapor saat 03:35 UTC de 23 dakika önce yapıldı.
Sakin rüzgar
Sıcaklık 13°C
Nem 82%
Basınç 1011 hPa
Görüş mesafesi: 16.1 km
Açık gökyüzü

METAR: KGIC 270335Z AUTO 00000KT 10SM CLR 13/10 A2986 RMK AO1

Saat: 20:58 (03:58 UTC)


TAF: eksik

4.000'den fazla havaalanı için hava durumu gözlemleri ve tahminleri (METAR ve TAF raporları).

Kullanılabilir istasyonlar harita üzerinde sarı ve kırmızı noktalarla gösterilir.

İstasyonun adını görmek için fareyi noktanın üzerinde gezdirin.

Sonrasında hava gözlem ve tahminlerini görmek için tıklayın.

Haritayı değiştirmek için: yaklaştırmak için siyah artı işaretli yeşil düğmeye ve uzaklaştırmak için de eksi işaretli düğmeye hızla tıklayın; bitişik haritalar için yeşil okları kullanın.


METAR-TAF: